Time;durP1;ratioP1;P1;durP2;ratioP2;P2;SDS_P1;SDS_P2;PMS_P1;PMS_P2;Temp;Humidity;BMP_temperature;BMP_pressure;BME280_temperature;BME280_humidity;BME280_pressure;Samples;Min_cycle;Max_cycle;Signal;HPM_P1;HPM_P2
2022/04/08 00:01:07;;;;;;;3.40;1.40;;;;;;;2.75;100.00;97115.94;7392430;19;20913;-48
2022/04/08 00:03:37;;;;;;;5.37;1.50;;;;;;;2.78;100.00;97133.78;7387873;19;20958;-43
2022/04/08 00:06:08;;;;;;;3.90;1.43;;;;;;;2.72;100.00;97141.34;7394620;19;20393;-47
2022/04/08 00:08:38;;;;;;;3.77;1.00;;;;;;;2.67;100.00;97143.00;7393655;19;20411;-44
2022/04/08 00:11:10;;;;;;;5.37;1.00;;;;;;;2.64;100.00;97148.00;7400196;19;20383;-51
2022/04/08 00:13:39;;;;;;;4.47;1.17;;;;;;;2.61;100.00;97163.25;7394255;19;20494;-44
2022/04/08 00:16:10;;;;;;;10.63;1.60;;;;;;;2.56;100.00;97161.47;7400381;19;20917;-49
2022/04/08 00:18:41;;;;;;;7.67;1.50;;;;;;;2.52;100.00;97157.16;7392418;19;20396;-48
2022/04/08 00:21:10;;;;;;;14.43;1.37;;;;;;;2.49;100.00;97162.22;7404169;19;20397;-51
2022/04/08 00:23:40;;;;;;;7.33;1.30;;;;;;;2.50;100.00;97163.06;7397779;19;20399;-46
2022/04/08 00:26:12;;;;;;;5.57;0.73;;;;;;;2.51;100.00;97174.97;7399861;19;20410;-47
2022/04/08 00:28:41;;;;;;;7.03;1.00;;;;;;;2.49;100.00;97179.16;7397196;19;20452;-48
2022/04/08 00:31:11;;;;;;;4.00;1.03;;;;;;;2.45;100.00;97188.44;7399174;19;20410;-47
2022/04/08 00:33:40;;;;;;;6.60;1.17;;;;;;;2.44;100.00;97196.91;7398436;19;20426;-52
2022/04/08 00:36:10;;;;;;;15.07;1.27;;;;;;;2.47;100.00;97204.59;7399791;19;20384;-46
2022/04/08 00:38:39;;;;;;;4.20;1.10;;;;;;;2.45;100.00;97215.59;7394444;19;20432;-44
2022/04/08 00:41:14;;;;;;;5.00;0.87;;;;;;;2.48;100.00;97219.03;7399471;19;20739;-49
2022/04/08 00:43:46;;;;;;;4.30;1.07;;;;;;;2.48;100.00;97221.59;7398858;19;20419;-47
2022/04/08 00:46:16;;;;;;;3.77;0.90;;;;;;;2.47;100.00;97230.06;7393124;19;20734;-47
2022/04/08 00:48:46;;;;;;;7.27;1.37;;;;;;;2.48;100.00;97235.97;7395961;19;20394;-43
2022/04/08 00:51:16;;;;;;;3.20;0.90;;;;;;;2.44;100.00;97232.53;7395738;19;20918;-50
2022/04/08 00:53:46;;;;;;;9.73;1.00;;;;;;;2.46;100.00;97243.59;7398258;19;20917;-46
2022/04/08 00:56:18;;;;;;;9.17;1.30;;;;;;;2.46;100.00;97245.28;7393186;19;20383;-48
2022/04/08 00:58:47;;;;;;;7.23;1.50;;;;;;;2.43;100.00;97246.09;7396302;19;20419;-44
2022/04/08 01:01:18;;;;;;;5.03;1.17;;;;;;;2.45;100.00;97258.84;7394096;19;20383;-46
2022/04/08 01:03:52;;;;;;;10.77;1.20;;;;;;;2.43;100.00;97256.28;7398301;19;20473;-43
2022/04/08 01:06:21;;;;;;;5.97;1.20;;;;;;;2.41;100.00;97275.75;7393071;19;20894;-47
2022/04/08 01:08:51;;;;;;;22.33;1.83;;;;;;;2.39;100.00;97279.94;7393936;19;20405;-49
2022/04/08 01:11:24;;;;;;;4.77;1.37;;;;;;;2.39;100.00;97290.13;7393111;19;20374;-45
2022/04/08 01:13:54;;;;;;;6.20;2.67;;;;;;;2.36;100.00;97300.25;7398071;19;20384;-46
2022/04/08 01:16:23;;;;;;;6.07;1.90;;;;;;;2.39;100.00;97307.94;7394094;19;20400;-47
2022/04/08 01:18:53;;;;;;;7.70;1.80;;;;;;;2.38;100.00;97313.84;7394320;19;21177;-44
2022/04/08 01:21:22;;;;;;;8.77;1.20;;;;;;;2.39;100.00;97315.56;7393815;19;20387;-44
2022/04/08 01:23:52;;;;;;;9.13;1.80;;;;;;;2.43;100.00;97327.53;7397602;19;20424;-47
2022/04/08 01:26:24;;;;;;;14.87;1.80;;;;;;;2.42;100.00;97330.91;7393373;19;20388;-45
2022/04/08 01:28:54;;;;;;;9.60;2.20;;;;;;;2.43;100.00;97327.53;7393947;19;20789;-44
2022/04/08 01:31:25;;;;;;;12.53;2.10;;;;;;;2.46;100.00;97347.09;7391854;19;20377;-43
2022/04/08 01:33:54;;;;;;;6.57;0.90;;;;;;;2.46;100.00;97344.53;7397521;19;20412;-47
2022/04/08 01:36:24;;;;;;;9.77;1.90;;;;;;;2.49;100.00;97353.09;7392985;19;20367;-48
2022/04/08 01:38:54;;;;;;;3.63;1.13;;;;;;;2.51;100.00;97351.41;7395206;19;20466;-50
2022/04/08 01:41:28;;;;;;;7.47;1.40;;;;;;;2.50;100.00;97352.25;7389461;19;20380;-46
2022/04/08 01:43:57;;;;;;;6.37;1.37;;;;;;;2.51;100.00;97351.41;7397225;19;20792;-47
2022/04/08 01:46:27;;;;;;;7.93;2.00;;;;;;;2.51;100.00;97356.50;7384281;19;20430;-48
2022/04/08 01:48:57;;;;;;;5.93;1.30;;;;;;;2.52;100.00;97367.56;7393502;19;20419;-47
2022/04/08 01:51:26;;;;;;;8.50;1.87;;;;;;;2.51;100.00;97366.69;7393183;19;20390;-48
2022/04/08 01:53:56;;;;;;;4.47;0.87;;;;;;;2.51;100.00;97360.75;7396844;19;20406;-47
2022/04/08 01:56:28;;;;;;;8.03;1.10;;;;;;;2.50;100.00;97381.94;7392617;19;20384;-46
2022/04/08 01:58:57;;;;;;;7.43;1.10;;;;;;;2.49;100.00;97388.72;7394563;19;20419;-47
2022/04/08 02:01:27;;;;;;;6.30;1.50;;;;;;;2.51;100.00;97396.41;7393239;19;20392;-46
2022/04/08 02:03:56;;;;;;;11.33;1.70;;;;;;;2.50;100.00;97398.06;7396296;19;20411;-47
2022/04/08 02:06:26;;;;;;;10.33;1.50;;;;;;;2.51;100.00;97389.59;7393194;19;20398;-47
2022/04/08 02:08:57;;;;;;;5.23;1.00;;;;;;;2.49;100.00;97401.44;7393095;19;20432;-48
2022/04/08 02:11:29;;;;;;;11.13;2.07;;;;;;;2.50;100.00;97408.25;7392392;19;20387;-49
2022/04/08 02:13:58;;;;;;;5.40;0.80;;;;;;;2.45;100.00;97422.56;7396246;19;20388;-47
2022/04/08 02:16:28;;;;;;;10.53;1.73;;;;;;;2.38;100.00;97426.69;7391635;19;20751;-47
2022/04/08 02:18:58;;;;;;;13.33;1.80;;;;;;;2.26;100.00;97401.81;7393991;19;20972;-49
2022/04/08 02:21:27;;;;;;;7.30;1.67;;;;;;;2.20;100.00;97431.38;7391322;19;20384;-43
2022/04/08 02:23:57;;;;;;;9.57;1.70;;;;;;;2.10;100.00;97445.56;7395842;19;20388;-46
2022/04/08 02:26:30;;;;;;;9.57;2.07;;;;;;;2.09;100.00;97442.16;7395124;19;20956;-44
2022/04/08 02:29:01;;;;;;;10.17;1.50;;;;;;;2.07;100.00;97445.50;7392772;19;20425;-46
2022/04/08 02:31:30;;;;;;;5.20;1.13;;;;;;;2.00;100.00;97458.06;7387200;19;20388;-45
2022/04/08 02:34:00;;;;;;;5.03;1.37;;;;;;;2.02;100.00;97464.03;7395423;19;20404;-44
2022/04/08 02:36:29;;;;;;;7.40;1.30;;;;;;;2.02;100.00;97456.41;7391463;19;20396;-46
2022/04/08 02:38:59;;;;;;;3.97;1.10;;;;;;;2.03;100.00;97459.81;7393407;19;20403;-47
2022/04/08 02:41:32;;;;;;;8.40;1.77;;;;;;;2.13;100.00;97481.25;7389843;19;20366;-47
2022/04/08 02:44:01;;;;;;;13.13;2.10;;;;;;;2.15;100.00;97498.25;7395618;19;20392;-46
2022/04/08 02:46:30;;;;;;;17.43;7.10;;;;;;;2.36;100.00;97488.53;7393867;19;20374;-44
2022/04/08 02:49:00;;;;;;;8.37;3.40;;;;;;;2.39;100.00;97489.47;7392634;19;20441;-43
2022/04/08 02:51:30;;;;;;;21.27;3.50;;;;;;;2.42;100.00;97501.41;7387870;19;20906;-49
2022/04/08 02:53:59;;;;;;;10.97;1.70;;;;;;;2.39;100.00;97503.88;7394723;19;20725;-48
2022/04/08 02:56:28;;;;;;;6.53;1.83;;;;;;;2.49;100.00;97505.78;7390826;19;20757;-44
2022/04/08 02:59:01;;;;;;;18.87;5.17;;;;;;;2.58;100.00;97499.19;7392657;19;20398;-47
2022/04/08 03:01:30;;;;;;;7.40;2.50;;;;;;;2.59;100.00;97511.06;7388627;19;20380;-44
2022/04/08 03:04:00;;;;;;;11.10;1.87;;;;;;;2.58;100.00;97517.00;7394507;19;20387;-51
2022/04/08 03:06:29;;;;;;;9.00;1.33;;;;;;;2.69;100.00;97523.19;7386141;19;20455;-47
2022/04/08 03:08:59;;;;;;;25.57;1.20;;;;;;;2.51;100.00;97508.38;7392071;19;20761;-49
2022/04/08 03:11:28;;;;;;;6.77;1.60;;;;;;;2.41;100.00;97527.69;7390125;19;20392;-44
2022/04/08 03:14:02;;;;;;;19.50;2.90;;;;;;;2.36;100.00;97531.81;7394554;19;20738;-44
2022/04/08 03:16:32;;;;;;;10.30;1.97;;;;;;;2.36;100.00;97529.25;7388398;19;20459;-48
2022/04/08 03:19:01;;;;;;;9.60;2.60;;;;;;;2.35;100.00;97532.63;7392671;19;20426;-44
2022/04/08 03:21:31;;;;;;;12.47;2.00;;;;;;;2.34;100.00;97541.94;7389699;19;20910;-46
2022/04/08 03:24:00;;;;;;;10.37;1.60;;;;;;;2.36;100.00;97547.06;7394112;19;20471;-45
2022/04/08 03:26:30;;;;;;;4.57;1.10;;;;;;;2.35;100.00;97535.19;7386256;19;20383;-53
2022/04/08 03:29:02;;;;;;;5.77;1.20;;;;;;;2.36;100.00;97539.44;7392050;19;20435;-47
2022/04/08 03:31:31;;;;;;;10.30;2.20;;;;;;;2.35;100.00;97546.19;7386268;19;20384;-47
2022/04/08 03:34:02;;;;;;;15.20;2.30;;;;;;;2.37;100.00;97564.91;7394341;19;20398;-45
2022/04/08 03:36:31;;;;;;;11.70;2.10;;;;;;;2.39;100.00;97570.03;7386784;19;20973;-45
2022/04/08 03:39:01;;;;;;;8.90;1.87;;;;;;;2.38;100.00;97573.41;7392003;19;20419;-47
2022/04/08 03:41:30;;;;;;;16.80;2.60;;;;;;;2.36;100.00;97585.25;7387184;19;20407;-47
2022/04/08 03:44:02;;;;;;;11.77;2.77;;;;;;;2.37;100.00;97579.31;7393400;19;20382;-50
2022/04/08 03:46:32;;;;;;;21.17;1.50;;;;;;;2.36;100.00;97587.78;7388324;19;20917;-46
2022/04/08 03:49:01;;;;;;;10.83;1.60;;;;;;;2.31;100.00;97591.91;7391681;19;20536;-46
2022/04/08 03:51:31;;;;;;;12.13;2.17;;;;;;;2.31;100.00;97596.97;7386901;19;20388;-50
2022/04/08 03:54:02;;;;;;;17.67;1.97;;;;;;;2.34;100.00;97602.13;7393418;19;20460;-46
2022/04/08 03:56:32;;;;;;;24.90;2.80;;;;;;;2.32;100.00;97614.84;7388682;19;20381;-46
2022/04/08 03:59:04;;;;;;;14.40;1.60;;;;;;;2.29;100.00;97620.72;7391656;19;20411;-45
2022/04/08 04:01:33;;;;;;;22.40;3.37;;;;;;;2.28;100.00;97624.09;7387469;19;20910;-44
2022/04/08 04:04:03;;;;;;;15.73;2.23;;;;;;;2.27;100.00;97616.41;7393098;19;20906;-47
2022/04/08 04:06:33;;;;;;;11.40;2.33;;;;;;;2.27;100.00;97635.06;7389466;19;20992;-49
2022/04/08 04:09:02;;;;;;;19.37;3.20;;;;;;;2.26;100.00;97643.53;7390860;19;20424;-47
2022/04/08 04:11:32;;;;;;;21.33;2.47;;;;;;;2.25;100.00;97636.72;7387461;19;20388;-48
2022/04/08 04:14:06;;;;;;;19.67;2.83;;;;;;;2.23;100.00;97655.31;7392913;19;20383;-45
2022/04/08 04:16:36;;;;;;;22.57;2.23;;;;;;;2.25;100.00;97658.78;7388544;19;20413;-46
2022/04/08 04:19:05;;;;;;;24.67;3.07;;;;;;;2.26;100.00;97668.97;7390821;19;20441;-47
2022/04/08 04:21:35;;;;;;;14.17;2.70;;;;;;;2.31;100.00;97668.22;7389578;19;20873;-48
2022/04/08 04:24:05;;;;;;;17.47;3.20;;;;;;;2.26;100.00;97686.78;7392750;19;20390;-47
2022/04/08 04:26:34;;;;;;;14.53;2.40;;;;;;;2.25;100.00;97699.47;7387113;19;20774;-49
2022/04/08 04:29:07;;;;;;;8.40;1.90;;;;;;;2.21;100.00;97706.13;7392987;19;20431;-52
2022/04/08 04:31:36;;;;;;;22.17;2.63;;;;;;;2.20;100.00;97717.16;7386221;19;20411;-48
2022/04/08 04:34:06;;;;;;;20.13;2.17;;;;;;;2.19;100.00;97714.59;7392503;19;20388;-43
2022/04/08 04:36:35;;;;;;;10.93;1.77;;;;;;;2.18;100.00;97734.06;7387091;19;20427;-45
2022/04/08 04:39:05;;;;;;;24.63;3.00;;;;;;;2.19;100.00;97757.84;7390349;19;20425;-49
2022/04/08 04:41:34;;;;;;;11.67;2.20;;;;;;;2.19;100.00;97763.75;7387543;19;20397;-48
2022/04/08 04:44:07;;;;;;;16.23;2.40;;;;;;;2.17;100.00;97762.88;7392277;19;20401;-50
2022/04/08 04:46:37;;;;;;;5.50;1.43;;;;;;;2.16;100.00;97763.69;7383871;19;21128;-47
2022/04/08 04:49:07;;;;;;;13.10;2.20;;;;;;;2.19;100.00;97768.84;7389913;19;20448;-49
2022/04/08 04:51:36;;;;;;;14.10;1.80;;;;;;;2.18;100.00;97774.75;7386464;19;20785;-49
2022/04/08 04:54:06;;;;;;;18.23;2.73;;;;;;;2.08;100.00;97780.41;7400193;19;20374;-45
2022/04/08 04:56:35;;;;;;;15.90;1.67;;;;;;;1.89;100.00;97775.69;7391177;19;20427;-52
2022/04/08 04:59:08;;;;;;;10.10;1.67;;;;;;;1.79;100.00;97781.31;7396880;19;20444;-45
2022/04/08 05:01:37;;;;;;;6.40;1.20;;;;;;;1.73;100.00;97783.66;7391727;19;20415;-50
2022/04/08 05:04:07;;;;;;;6.23;0.93;;;;;;;1.68;100.00;97793.69;7398839;19;20415;-48
2022/04/08 05:06:37;;;;;;;8.47;1.43;;;;;;;1.67;100.00;97793.66;7393276;19;20403;-47
2022/04/08 05:09:07;;;;;;;12.83;2.30;;;;;;;1.69;100.00;97792.03;7396058;19;20746;-48
2022/04/08 05:11:36;;;;;;;17.03;2.17;;;;;;;1.66;100.00;97795.34;7391448;19;20407;-48
2022/04/08 05:14:09;;;;;;;6.70;1.20;;;;;;;1.69;100.00;97795.41;7398685;19;20388;-44
2022/04/08 05:16:38;;;;;;;23.73;1.67;;;;;;;1.65;100.00;97788.53;7389982;19;20420;-47
2022/04/08 05:19:08;;;;;;;10.37;2.00;;;;;;;1.64;100.00;97794.41;7396480;19;20416;-46
2022/04/08 05:21:37;;;;;;;12.33;1.50;;;;;;;1.64;100.00;97801.19;7388506;19;20407;-47
2022/04/08 05:24:08;;;;;;;25.07;1.63;;;;;;;1.63;100.00;97794.41;7398274;19;20379;-52
2022/04/08 05:26:37;;;;;;;12.87;2.50;;;;;;;1.63;100.00;97802.88;7389956;19;20397;-49
2022/04/08 05:29:09;;;;;;;2.60;0.73;;;;;;;1.67;100.00;97801.28;7395987;19;20412;-46
2022/04/08 05:31:39;;;;;;;8.30;1.33;;;;;;;1.71;100.00;97801.44;7392539;19;20409;-50
2022/04/08 05:34:08;;;;;;;9.73;1.40;;;;;;;1.72;100.00;97805.69;7397923;19;20409;-51
2022/04/08 05:36:38;;;;;;;6.10;1.07;;;;;;;1.80;100.00;97817.78;7392753;19;20945;-46
2022/04/08 05:39:07;;;;;;;9.57;1.60;;;;;;;1.88;100.00;97823.94;7395880;19;20929;-45
2022/04/08 05:41:38;;;;;;;2.60;1.10;;;;;;;1.88;100.00;97821.41;7391706;19;20419;-49
2022/04/08 05:44:10;;;;;;;9.90;1.43;;;;;;;1.95;100.00;97833.47;7397611;19;20379;-49
2022/04/08 05:46:40;;;;;;;11.33;1.97;;;;;;;1.97;100.00;97849.66;7392277;19;20461;-50
2022/04/08 05:49:09;;;;;;;9.70;2.00;;;;;;;1.92;100.00;97843.56;7395011;19;20401;-47
2022/04/08 05:51:39;;;;;;;16.90;2.97;;;;;;;1.88;100.00;97854.44;7390138;19;20419;-47
2022/04/08 05:54:10;;;;;;;11.40;2.13;;;;;;;1.62;100.00;97854.53;7397114;19;20403;-50
2022/04/08 05:56:39;;;;;;;14.17;2.20;;;;;;;1.53;100.00;97852.56;7389474;19;20401;-47
2022/04/08 05:59:11;;;;;;;18.60;2.50;;;;;;;1.51;100.00;97850.78;7396246;19;20869;-50
2022/04/08 06:01:41;;;;;;;19.53;2.37;;;;;;;1.50;100.00;97843.97;7391391;19;20411;-51
2022/04/08 06:04:10;;;;;;;23.13;3.43;;;;;;;1.55;100.00;97837.38;7398299;19;20382;-49
2022/04/08 06:06:43;;;;;;;16.53;2.67;;;;;;;1.53;100.00;97841.53;7362250;19;20399;-43
2022/04/08 06:09:12;;;;;;;13.03;3.10;;;;;;;1.58;100.00;97839.97;7394434;19;20419;-47
2022/04/08 06:11:44;;;;;;;16.80;2.40;;;;;;;1.58;100.00;97847.59;7386532;19;20405;-48
2022/04/08 06:14:16;;;;;;;13.87;2.20;;;;;;;1.68;100.00;97843.66;7396649;19;20381;-47
2022/04/08 06:16:46;;;;;;;6.87;2.13;;;;;;;1.77;100.00;97843.09;7392370;19;20412;-47
2022/04/08 06:19:15;;;;;;;30.50;12.20;;;;;;;1.99;100.00;97845.47;7394198;19;20462;-46
2022/04/08 06:21:45;;;;;;;16.30;4.60;;;;;;;2.29;100.00;97829.34;7386442;19;20427;-49
2022/04/08 06:24:15;;;;;;;11.70;2.23;;;;;;;2.00;100.00;97837.00;7396318;19;20466;-45
2022/04/08 06:26:44;;;;;;;11.80;3.77;;;;;;;2.17;100.00;97823.94;7393115;19;20391;-49
2022/04/08 06:29:16;;;;;;;8.00;2.00;;;;;;;2.11;100.00;97823.75;7394141;19;20438;-48
2022/04/08 06:31:47;;;;;;;16.97;5.13;;;;;;;2.24;100.00;97822.41;7389275;19;20438;-51
2022/04/08 06:34:17;;;;;;;11.30;2.03;;;;;;;2.15;100.00;97840.81;7395974;19;20721;-49
2022/04/08 06:36:46;;;;;;;4.23;1.20;;;;;;;2.02;100.00;97832.81;7391205;19;20425;-51
2022/04/08 06:39:16;;;;;;;12.63;2.40;;;;;;;2.07;100.00;97837.19;7393947;19;20412;-48
2022/04/08 06:41:46;;;;;;;12.27;2.10;;;;;;;2.18;100.00;97835.81;7390528;19;20411;-46
2022/04/08 06:44:19;;;;;;;6.97;1.10;;;;;;;2.19;100.00;97854.50;7395732;19;20396;-49
2022/04/08 06:46:48;;;;;;;9.93;1.73;;;;;;;2.32;100.00;97846.41;7387876;19;20415;-47
2022/04/08 06:49:19;;;;;;;10.57;1.87;;;;;;;2.37;100.00;97836.34;7393401;19;20750;-46
2022/04/08 06:51:49;;;;;;;19.47;1.40;;;;;;;2.43;100.00;97836.50;7388974;19;20945;-49
2022/04/08 06:54:19;;;;;;;8.93;1.53;;;;;;;2.56;100.00;97842.78;7395130;19;20407;-47
2022/04/08 06:56:49;;;;;;;21.40;1.47;;;;;;;2.46;100.00;97851.84;7391531;19;20443;-46
2022/04/08 06:59:21;;;;;;;4.83;1.57;;;;;;;2.69;100.00;97859.25;7396305;19;20501;-49
2022/04/08 07:01:50;;;;;;;15.23;2.30;;;;;;;2.96;100.00;97837.88;7393382;19;20447;-48
2022/04/08 07:04:21;;;;;;;9.50;2.00;;;;;;;2.94;100.00;97868.44;7398843;19;20401;-48
2022/04/08 07:06:50;;;;;;;5.23;1.37;;;;;;;2.96;100.00;97863.34;7393235;19;20446;-46
2022/04/08 07:09:20;;;;;;;6.47;1.60;;;;;;;3.06;100.00;97867.88;7396118;19;20419;-51
2022/04/08 07:11:49;;;;;;;4.60;1.70;;;;;;;3.23;100.00;97870.00;7388378;19;20466;-50
2022/04/08 07:14:22;;;;;;;15.83;7.53;;;;;;;3.53;100.00;97856.22;7397672;19;20388;-47
2022/04/08 07:16:52;;;;;;;6.70;2.23;;;;;;;3.30;100.00;97871.84;7389744;19;20514;-47
2022/04/08 07:19:22;;;;;;;25.57;4.50;;;;;;;3.32;100.00;97865.09;7395433;19;20428;-49
2022/04/08 07:21:51;;;;;;;18.73;4.30;;;;;;;3.55;100.00;97864.81;7390582;19;20447;-47
2022/04/08 07:24:21;;;;;;;15.80;4.60;;;;;;;3.67;100.00;97855.69;7397511;19;20933;-49
2022/04/08 07:26:51;;;;;;;8.90;2.60;;;;;;;3.89;100.00;97869.78;7392013;19;20443;-48
2022/04/08 07:29:23;;;;;;;9.33;3.13;;;;;;;3.67;100.00;97883.75;7396354;19;20438;-50
2022/04/08 07:31:52;;;;;;;4.13;1.83;;;;;;;3.62;100.00;97887.06;7387011;19;20425;-48
2022/04/08 07:34:22;;;;;;;3.73;1.47;;;;;;;3.63;100.00;97898.97;7393677;19;20387;-52
2022/04/08 07:36:52;;;;;;;8.43;1.80;;;;;;;3.65;100.00;97902.41;7388037;19;20408;-44
2022/04/08 07:39:21;;;;;;;16.77;3.10;;;;;;;3.79;100.00;97899.31;7391663;19;20412;-45
2022/04/08 07:41:51;;;;;;;6.10;1.70;;;;;;;3.74;100.00;97911.97;7387877;19;20426;-49
2022/04/08 07:44:23;;;;;;;8.93;1.33;;;;;;;3.67;100.00;97917.75;7393429;19;20388;-48
2022/04/08 07:46:53;;;;;;;11.23;1.60;;;;;;;3.80;100.00;97916.38;7386514;19;20429;-48
2022/04/08 07:49:22;;;;;;;2.30;1.03;;;;;;;3.71;100.00;97917.03;7393910;19;20416;-46
2022/04/08 07:51:52;;;;;;;5.40;0.80;;;;;;;3.56;100.00;97921.75;7369656;19;20395;-45
2022/04/08 07:54:22;;;;;;;14.67;3.20;;;;;;;3.73;100.00;97912.81;7391521;19;20394;-46
2022/04/08 07:56:51;;;;;;;6.90;2.27;;;;;;;3.77;100.00;97906.97;7386240;19;20407;-46
2022/04/08 07:59:23;;;;;;;8.30;1.03;;;;;;;3.74;100.00;97906.88;7395103;19;20875;-48
2022/04/08 08:01:53;;;;;;;10.27;2.00;;;;;;;3.75;100.00;97925.59;7385071;19;20415;-49
2022/04/08 08:04:23;;;;;;;15.70;2.37;;;;;;;3.63;100.00;97915.97;7392800;19;20392;-46
2022/04/08 08:06:52;;;;;;;9.50;1.77;;;;;;;3.54;100.00;97931.88;7385908;19;20423;-45
2022/04/08 08:09:22;;;;;;;4.57;0.80;;;;;;;3.54;100.00;97919.13;7390260;19;20427;-48
2022/04/08 08:12:12;;;;;;;6.40;0.83;;;;;;;3.44;100.00;97924.88;7384070;19;20453;-50
2022/04/08 08:14:44;;;;;;;3.17;0.87;;;;;;;3.26;100.00;97937.97;7392536;19;20387;-45
2022/04/08 08:17:13;;;;;;;2.73;1.10;;;;;;;3.33;100.00;97934.78;7359079;19;20427;-47
2022/04/08 08:19:43;;;;;;;3.13;0.80;;;;;;;3.47;100.00;97952.97;7392599;19;20419;-46
2022/04/08 08:22:12;;;;;;;4.17;1.10;;;;;;;3.50;100.00;97932.66;7387146;19;20937;-43
2022/04/08 08:24:42;;;;;;;3.30;1.13;;;;;;;3.79;100.00;97909.53;7392213;19;20917;-48
2022/04/08 08:27:11;;;;;;;2.10;0.60;;;;;;;3.93;100.00;97899.66;7388110;19;20429;-47
2022/04/08 08:29:44;;;;;;;11.93;1.13;;;;;;;3.83;100.00;97901.13;7401130;19;20933;-48
2022/04/08 08:32:13;;;;;;;5.17;0.87;;;;;;;3.77;100.00;97906.97;7393779;19;20411;-47
2022/04/08 08:34:43;;;;;;;3.40;0.70;;;;;;;3.72;100.00;97915.31;7399565;19;20397;-47
2022/04/08 08:37:12;;;;;;;2.67;1.10;;;;;;;3.68;100.00;97921.19;7391936;19;20415;-45
2022/04/08 08:39:42;;;;;;;4.47;1.00;;;;;;;3.57;100.00;97914.13;7396802;19;20668;-43
2022/04/08 08:42:12;;;;;;;5.43;1.30;;;;;;;3.81;100.00;97907.91;7393123;19;20415;-48
2022/04/08 08:44:44;;;;;;;5.77;1.30;;;;;;;4.03;100.00;97911.81;7399052;19;20904;-46
2022/04/08 08:47:14;;;;;;;4.37;1.00;;;;;;;4.04;100.00;97912.63;7391849;19;20426;-48
2022/04/08 08:49:48;;;;;;;5.97;1.40;;;;;;;4.24;100.00;97905.44;7396369;19;20418;-45
2022/04/08 08:52:19;;;;;;;6.63;1.37;;;;;;;4.39;100.00;97881.91;7393552;19;20423;-46
2022/04/08 08:54:49;;;;;;;4.97;1.57;;;;;;;4.15;100.00;97900.97;7400756;19;20391;-52
2022/04/08 08:57:19;;;;;;;6.50;1.30;;;;;;;4.21;100.00;97912.16;7392428;19;20494;-45
2022/04/08 08:59:53;;;;;;;7.00;1.33;;;;;;;4.40;100.00;98025.75;7395912;19;20418;-45
2022/04/08 09:02:24;;;;;;;2.80;1.10;;;;;;;4.41;100.00;98042.81;7392406;19;20407;-51
2022/04/08 09:04:54;;;;;;;9.70;0.90;;;;;;;4.59;100.00;98052.56;7399443;19;20396;-48
2022/04/08 09:07:26;;;;;;;3.00;0.90;;;;;;;4.64;100.00;98075.66;7360531;19;20387;-48
2022/04/08 09:09:57;;;;;;;3.10;0.87;;;;;;;4.49;100.00;98096.59;7394667;19;20418;-48
2022/04/08 09:12:28;;;;;;;8.00;1.70;;;;;;;4.59;100.00;98113.84;7389361;19;20422;-47
2022/04/08 09:15:02;;;;;;;4.90;0.93;;;;;;;4.54;100.00;98146.09;7398362;19;20982;-44
2022/04/08 09:17:32;;;;;;;5.77;1.37;;;;;;;4.44;100.00;98171.41;7388744;19;20418;-49
2022/04/08 09:20:02;;;;;;;10.27;2.13;;;;;;;4.56;100.00;98144.44;7399378;19;20434;-50
2022/04/08 09:22:33;;;;;;;6.03;1.33;;;;;;;4.71;100.00;98160.13;7393192;19;20438;-48
2022/04/08 09:25:09;;;;;;;14.00;1.47;;;;;;;4.76;100.00;98182.38;7398358;19;20379;-44
2022/04/08 09:27:40;;;;;;;4.37;1.33;;;;;;;4.89;100.00;98191.19;7391836;19;20757;-47
2022/04/08 09:30:13;;;;;;;4.07;1.50;;;;;;;4.84;100.00;98191.94;7395126;19;20415;-52
2022/04/08 09:32:42;;;;;;;4.60;1.20;;;;;;;4.55;100.00;98209.09;7391612;19;20423;-47
2022/04/08 09:35:19;;;;;;;2.17;0.90;;;;;;;4.70;100.00;98213.72;7397862;19;20407;-51
2022/04/08 09:38:00;;;;;;;5.93;1.30;;;;;;;5.05;100.00;98210.28;7389789;19;20819;-52
2022/04/08 09:40:36;;;;;;;7.70;1.17;;;;;;;4.84;100.00;98237.94;7396321;19;20400;-49
2022/04/08 09:43:06;;;;;;;8.30;1.30;;;;;;;4.82;100.00;98244.69;7362371;19;20410;-52
2022/04/08 09:45:38;;;;;;;3.63;1.07;;;;;;;5.10;100.00;98235.13;7397214;19;20455;-47
2022/04/08 09:48:10;;;;;;;11.03;1.50;;;;;;;5.07;100.00;98236.75;7384084;19;20446;-43
2022/04/08 09:50:40;;;;;;;5.13;1.10;;;;;;;5.04;100.00;98239.22;7396926;19;20375;-49
2022/04/08 09:53:12;;;;;;;3.27;1.20;;;;;;;4.99;100.00;98275.75;7385619;19;20439;-49
2022/04/08 09:55:42;;;;;;;5.13;0.93;;;;;;;4.89;100.00;98263.59;7396614;19;20942;-49
2022/04/08 09:58:12;;;;;;;7.30;1.10;;;;;;;5.10;100.00;98270.06;7383716;19;20789;-49
2022/04/08 10:00:45;;;;;;;15.83;1.70;;;;;;;5.43;100.00;98269.09;7399185;19;20391;-45
2022/04/08 10:03:15;;;;;;;6.93;1.20;;;;;;;5.20;100.00;98295.00;7391704;19;20969;-49
2022/04/08 10:05:45;;;;;;;5.23;1.00;;;;;;;5.52;100.00;98300.00;7397207;19;20388;-47
2022/04/08 10:08:14;;;;;;;1.40;0.50;;;;;;;5.65;100.00;98315.63;7387030;19;20450;-47
2022/04/08 10:10:48;;;;;;;2.57;0.60;;;;;;;5.85;100.00;98333.13;7396285;19;20393;-47
2022/04/08 10:13:39;;;;;;;4.80;1.30;;;;;;;5.77;100.00;98382.44;7388761;19;20430;-45
2022/04/08 10:16:16;;;;;;;4.60;1.10;;;;;;;6.21;100.00;98368.06;7396191;19;20377;-48
2022/04/08 10:18:47;;;;;;;4.07;0.90;;;;;;;6.33;100.00;98385.38;7394536;19;20460;-52
2022/04/08 10:21:17;;;;;;;2.73;1.17;;;;;;;6.22;100.00;98415.88;7391475;19;20923;-45
2022/04/08 10:23:51;;;;;;;4.17;1.00;;;;;;;6.34;100.00;98457.13;7395246;19;20394;-52
2022/04/08 10:26:22;;;;;;;4.47;0.60;;;;;;;6.27;100.00;98472.31;7392818;19;20432;-45
2022/04/08 10:28:54;;;;;;;4.03;1.40;;;;;;;6.19;100.00;98467.00;7393694;19;20968;-47
2022/04/08 10:31:27;;;;;;;3.43;0.93;;;;;;;6.20;100.00;98463.63;7390884;19;20977;-48
2022/04/08 10:33:58;;;;;;;5.03;1.10;;;;;;;6.12;100.00;98471.16;7397265;19;20424;-44
2022/04/08 10:36:36;;;;;;;3.83;1.00;;;;;;;5.92;100.00;98452.72;7389017;19;20387;-49
2022/04/08 10:39:14;;;;;;;4.33;1.10;;;;;;;6.00;100.00;98433.28;7394045;19;20416;-49
2022/04/08 10:41:48;;;;;;;3.93;1.10;;;;;;;6.16;100.00;98415.75;7388127;19;20413;-48
2022/04/08 10:44:18;;;;;;;3.57;1.23;;;;;;;6.54;100.00;98396.88;7395345;19;20363;-47
2022/04/08 10:46:55;;;;;;;5.30;1.10;;;;;;;6.51;100.00;98441.25;7389673;19;20425;-50
2022/04/08 10:49:24;;;;;;;1.80;0.63;;;;;;;6.21;100.00;98470.50;7392952;19;20428;-45
2022/04/08 10:51:54;;;;;;;2.17;0.63;;;;;;;6.25;100.00;98500.44;7388851;19;20438;-46
2022/04/08 10:54:35;;;;;;;6.97;1.43;;;;;;;6.44;100.00;98521.34;7394202;19;20400;-51
2022/04/08 10:57:05;;;;;;;9.80;2.70;;;;;;;6.41;100.00;98522.16;7388912;19;20418;-50
2022/04/08 10:59:35;;;;;;;2.87;0.73;;;;;;;6.42;100.00;98539.25;7392789;19;20417;-48
2022/04/08 11:02:11;;;;;;;3.37;0.80;;;;;;;6.40;100.00;98592.16;7387085;19;20427;-53
2022/04/08 11:04:41;;;;;;;2.13;0.60;;;;;;;6.31;100.00;98585.09;7394443;19;20421;-47
2022/04/08 11:07:11;;;;;;;3.87;1.07;;;;;;;6.02;100.00;98598.06;7369511;19;20878;-46
2022/04/08 11:09:41;;;;;;;2.93;0.90;;;;;;;6.11;100.00;98592.31;7392521;19;20425;-48
2022/04/08 11:12:11;;;;;;;5.50;1.90;;;;;;;6.30;100.00;98557.78;7367518;19;20820;-49
2022/04/08 11:14:41;;;;;;;1.70;0.50;;;;;;;6.48;100.00;98582.09;7393791;19;20732;-45
2022/04/08 11:17:13;;;;;;;6.57;1.23;;;;;;;6.66;100.00;98576.50;7388379;19;20411;-48
2022/04/08 11:19:43;;;;;;;4.60;1.10;;;;;;;6.82;100.00;98567.47;7394962;19;20965;-48
2022/04/08 11:22:15;;;;;;;2.73;0.93;;;;;;;6.86;100.00;98574.41;7358974;19;21075;-46
2022/04/08 11:24:45;;;;;;;6.13;1.20;;;;;;;6.74;100.00;98586.94;7393790;19;20387;-48
2022/04/08 11:27:14;;;;;;;4.90;1.23;;;;;;;6.75;100.00;98601.50;7387289;19;20418;-49
2022/04/08 11:29:44;;;;;;;4.33;1.10;;;;;;;6.75;100.00;98611.75;7391955;19;20413;-46
2022/04/08 11:32:16;;;;;;;4.53;1.07;;;;;;;6.98;100.00;98629.34;7386257;19;20410;-46
2022/04/08 11:34:46;;;;;;;7.20;1.00;;;;;;;6.58;100.00;98630.19;7393702;19;20412;-45
2022/04/08 11:37:16;;;;;;;3.93;1.23;;;;;;;6.84;100.00;98622.22;7387016;19;20421;-46
2022/04/08 11:39:45;;;;;;;6.17;1.43;;;;;;;7.01;100.00;98616.59;7391633;19;20420;-48
2022/04/08 11:42:16;;;;;;;2.33;1.10;;;;;;;7.22;100.00;98620.47;7387666;19;20768;-43
2022/04/08 11:44:51;;;;;;;5.93;1.23;;;;;;;7.23;100.00;98622.19;7393435;19;20761;-50
2022/04/08 11:47:31;;;;;;;4.33;1.00;;;;;;;7.47;100.00;98632.09;7386583;19;20422;-46